createdAt,value
2019-02-27T08:41:31.482Z,39.90
2019-02-27T08:42:30.805Z,39.30
2019-02-27T08:43:30.555Z,47.20
2019-02-27T08:44:30.410Z,110.10
2019-02-27T08:45:30.330Z,50.20
2019-02-27T08:46:30.176Z,62.60
2019-02-27T08:47:31.181Z,68.90
2019-02-27T08:48:30.185Z,72.80
2019-02-27T08:49:31.935Z,64.70
2019-02-27T08:51:25.419Z,51.50
2019-02-27T08:52:24.887Z,65.10
2019-02-27T08:53:26.899Z,58.70
2019-02-27T08:54:24.863Z,59.70
2019-02-27T08:55:25.008Z,48.90
2019-02-27T08:56:24.970Z,47.00
2019-02-27T08:57:24.977Z,52.50
2019-02-27T08:58:26.687Z,52.10
2019-02-27T08:59:24.986Z,53.80
2019-02-27T09:00:24.904Z,52.40
2019-02-27T09:01:24.895Z,49.70
2019-02-27T09:02:29.250Z,46.40
2019-02-27T09:03:25.914Z,35.90
2019-02-27T09:04:24.888Z,16.50
2019-02-27T09:05:24.947Z,38.70
2019-02-27T09:06:27.269Z,45.00
2019-02-27T09:07:24.870Z,46.70
2019-02-27T09:08:24.835Z,45.10
2019-02-27T09:09:24.856Z,49.60
2019-02-27T09:10:26.714Z,46.40
2019-02-27T09:11:25.801Z,48.10
2019-02-27T09:12:24.766Z,42.80
2019-02-27T09:13:24.664Z,44.70
2019-02-27T09:14:24.750Z,40.10
2019-02-27T09:15:24.727Z,43.40
2019-02-27T09:16:26.119Z,43.40
2019-02-27T09:17:26.919Z,43.50
2019-02-27T09:18:24.746Z,48.20
2019-02-27T09:19:24.709Z,45.90
2019-02-27T09:20:24.723Z,42.60
2019-02-27T09:21:24.909Z,36.50
2019-02-27T09:22:24.691Z,35.70
2019-02-27T09:23:24.575Z,38.80
2019-02-27T09:24:24.717Z,37.80
2019-02-27T09:25:26.491Z,42.80
2019-02-27T09:26:24.639Z,39.80
2019-02-27T09:27:24.490Z,40.60
2019-02-27T09:28:24.463Z,45.70
2019-02-27T09:29:24.670Z,42.00
2019-02-27T09:30:28.854Z,40.40
2019-02-27T09:31:25.594Z,28.30
2019-02-27T09:32:24.447Z,26.80
2019-02-27T09:33:24.577Z,30.90
2019-02-27T09:34:26.888Z,34.00
2019-02-27T09:35:25.150Z,36.70
2019-02-27T09:36:24.634Z,33.60
2019-02-27T09:37:24.484Z,38.60
2019-02-27T09:38:24.919Z,35.70
2019-02-27T09:39:25.048Z,35.90
2019-02-27T09:40:24.477Z,35.20
2019-02-27T09:41:24.890Z,34.50
2019-02-27T09:42:24.479Z,36.40
2019-02-27T09:43:27.326Z,41.50
2019-02-27T09:44:24.443Z,47.10
2019-02-27T09:45:25.488Z,46.10
2019-02-27T09:46:24.913Z,45.60
2019-02-27T09:47:25.760Z,49.10
2019-02-27T09:48:24.373Z,66.20
2019-02-27T09:49:24.442Z,45.30
2019-02-27T09:50:24.405Z,45.30
2019-02-27T09:51:24.361Z,44.70
2019-02-27T09:52:24.937Z,44.70
2019-02-27T09:53:27.400Z,43.00
2019-02-27T09:54:25.317Z,47.90
2019-02-27T09:55:24.163Z,40.70
2019-02-27T09:56:26.097Z,43.80
2019-02-27T09:57:24.294Z,170.70
2019-02-27T09:58:25.876Z,38.20
2019-02-27T09:59:24.257Z,41.60
2019-02-27T10:00:26.620Z,38.90
2019-02-27T10:01:24.272Z,40.80
2019-02-27T10:02:24.329Z,43.30
2019-02-27T10:03:24.224Z,39.40
2019-02-27T10:04:25.938Z,40.30
2019-02-27T10:05:24.236Z,44.60
2019-02-27T10:06:24.207Z,45.00
2019-02-27T10:07:24.227Z,43.30
2019-02-27T10:08:25.215Z,41.30
2019-02-27T10:09:24.167Z,38.70
2019-02-27T10:10:24.166Z,41.40
2019-02-27T10:11:24.141Z,43.80
2019-02-27T10:12:27.123Z,36.40
2019-02-27T10:13:24.116Z,39.60
2019-02-27T10:14:24.141Z,42.90
2019-02-27T10:15:25.297Z,42.70
2019-02-27T10:16:24.662Z,39.30
2019-02-27T10:17:24.110Z,42.00
2019-02-27T10:18:24.066Z,41.80
2019-02-27T10:19:27.000Z,43.20
2019-02-27T10:20:24.091Z,42.80
2019-02-27T10:21:24.599Z,42.20
2019-02-27T10:22:24.637Z,39.00
2019-02-27T10:23:25.070Z,35.50
2019-02-27T10:24:24.006Z,36.60
2019-02-27T10:25:23.992Z,38.30
2019-02-27T10:26:24.918Z,37.30
2019-02-27T10:27:25.502Z,38.70
2019-02-27T10:28:23.972Z,41.30
2019-02-27T10:29:23.960Z,39.70
2019-02-27T10:30:23.953Z,35.50
2019-02-27T10:31:25.981Z,39.10
2019-02-27T10:32:24.490Z,37.10
2019-02-27T10:33:25.789Z,37.00
2019-02-27T10:34:23.896Z,37.60
2019-02-27T10:35:23.871Z,36.50
2019-02-27T10:36:25.019Z,34.00
2019-02-27T10:37:24.025Z,38.50
2019-02-27T10:38:26.155Z,36.60
2019-02-27T10:39:23.829Z,39.70
2019-02-27T10:40:23.830Z,48.10
2019-02-27T10:41:24.408Z,42.80
2019-02-27T10:42:23.786Z,40.70
2019-02-27T10:43:23.630Z,37.80
2019-02-27T10:44:23.773Z,36.40
2019-02-27T10:45:23.763Z,38.20
2019-02-27T10:46:24.350Z,38.70
2019-02-27T10:47:23.864Z,37.60
2019-02-27T10:48:23.723Z,38.10
2019-02-27T10:49:23.732Z,38.40
2019-02-27T10:50:23.689Z,37.50
2019-02-27T10:51:23.682Z,35.50
2019-02-27T10:52:24.417Z,45.30
2019-02-27T10:53:27.115Z,51.80
2019-02-27T10:54:23.691Z,54.30
2019-02-27T10:55:23.636Z,38.30
2019-02-27T10:56:24.235Z,40.60
2019-02-27T10:57:23.632Z,86.00
2019-02-27T10:58:24.660Z,34.70
2019-02-27T10:59:23.628Z,32.40
2019-02-27T11:00:25.227Z,35.50
2019-02-27T11:01:23.590Z,34.00
2019-02-27T11:02:23.744Z,34.20
2019-02-27T11:03:26.408Z,34.90
2019-02-27T11:04:23.582Z,36.40
2019-02-27T11:05:23.549Z,75.50
2019-02-27T11:06:23.499Z,40.30
2019-02-27T11:07:23.550Z,40.80
2019-02-27T11:08:23.567Z,36.00
2019-02-27T11:09:23.491Z,34.60
2019-02-27T11:10:23.517Z,35.00
2019-02-27T11:11:23.478Z,36.90
2019-02-27T11:12:23.513Z,35.80
2019-02-27T11:13:23.482Z,49.20
2019-02-27T11:14:23.502Z,44.30
2019-02-27T11:15:23.434Z,43.40
2019-02-27T11:16:23.446Z,39.90
2019-02-27T11:17:23.371Z,44.40
2019-02-27T11:18:23.394Z,49.70
2019-02-27T11:19:23.369Z,45.40
2019-02-27T11:20:24.702Z,46.20
2019-02-27T11:21:23.338Z,44.80
2019-02-27T11:22:23.517Z,43.90
2019-02-27T11:23:23.363Z,44.90
2019-02-27T11:24:24.770Z,42.70
2019-02-27T11:25:23.295Z,43.00
2019-02-27T11:26:23.341Z,42.70
2019-02-27T11:27:23.318Z,43.50
2019-02-27T11:28:23.341Z,43.80
2019-02-27T11:29:23.880Z,44.70
2019-02-27T11:30:23.283Z,42.40
2019-02-27T11:31:23.267Z,47.00
2019-02-27T11:32:24.016Z,48.50
2019-02-27T11:33:25.859Z,49.00
2019-02-27T11:34:23.302Z,49.00
2019-02-27T11:35:25.253Z,52.10
2019-02-27T11:36:23.249Z,53.90
2019-02-27T11:37:23.227Z,51.00
2019-02-27T11:38:24.873Z,50.50
2019-02-27T11:39:23.030Z,46.50
2019-02-27T11:40:23.293Z,46.50
2019-02-27T11:41:23.160Z,48.90
2019-02-27T11:42:23.395Z,49.20
2019-02-27T11:43:22.973Z,43.80
2019-02-27T11:44:23.112Z,52.10
2019-02-27T11:45:24.611Z,58.40
2019-02-27T11:46:23.126Z,30.40
2019-02-27T11:47:23.126Z,27.10
2019-02-27T11:48:23.491Z,29.90
2019-02-27T11:49:22.894Z,32.60
2019-02-27T11:50:23.039Z,35.60
2019-02-27T11:51:22.997Z,31.70
2019-02-27T11:52:27.845Z,28.10
2019-02-27T11:53:23.969Z,31.20
2019-02-27T11:54:22.839Z,30.50
2019-02-27T11:55:24.471Z,29.80
2019-02-27T11:56:22.964Z,30.30
2019-02-27T11:57:22.997Z,28.30
2019-02-27T11:58:22.932Z,29.50
2019-02-27T11:59:22.796Z,25.80
2019-02-27T12:00:22.939Z,27.80
2019-02-27T12:01:22.910Z,29.30
2019-02-27T12:02:28.757Z,28.30
2019-02-27T12:03:23.883Z,31.00
2019-02-27T12:04:22.878Z,28.40
2019-02-27T12:05:22.864Z,28.20
2019-02-27T12:06:22.853Z,24.40
2019-02-27T12:07:22.885Z,27.00
2019-02-27T12:08:25.753Z,35.10
2019-02-27T12:09:22.782Z,27.80
2019-02-27T12:10:22.795Z,27.30
2019-02-27T12:11:22.800Z,30.20
2019-02-27T12:12:24.130Z,32.50
2019-02-27T12:13:22.856Z,32.70
2019-02-27T12:14:22.774Z,30.30
2019-02-27T12:15:22.798Z,34.80
2019-02-27T12:16:22.791Z,31.30
2019-02-27T12:17:23.292Z,30.60
2019-02-27T12:18:23.639Z,29.80
2019-02-27T12:19:22.697Z,29.70
2019-02-27T12:20:22.664Z,30.30
2019-02-27T12:21:25.462Z,23.50
2019-02-27T12:22:22.514Z,1.90
2019-02-27T12:23:22.697Z,1.80
2019-02-27T12:24:22.673Z,0.70
2019-02-27T12:25:26.748Z,28.90
2019-02-27T12:26:23.598Z,30.90
2019-02-27T12:27:45.193Z,32.10
2019-02-27T12:28:23.675Z,28.80
2019-02-27T12:29:24.120Z,37.60
2019-02-27T12:30:22.634Z,31.70
2019-02-27T12:31:22.601Z,30.80
2019-02-27T12:32:22.604Z,32.50
2019-02-27T12:33:22.429Z,35.80
2019-02-27T12:34:22.552Z,53.30
2019-02-27T12:35:22.502Z,53.90
2019-02-27T12:36:22.538Z,37.40
2019-02-27T12:37:28.099Z,31.50
2019-02-27T12:38:23.386Z,30.30
2019-02-27T12:39:22.462Z,34.30
2019-02-27T12:40:24.999Z,31.20
2019-02-27T12:41:22.455Z,93.00
2019-02-27T12:42:22.463Z,37.80
2019-02-27T12:43:22.472Z,40.50
2019-02-27T12:44:22.446Z,39.70
2019-02-27T12:45:22.485Z,39.90
2019-02-27T12:46:22.399Z,36.60
2019-02-27T12:47:22.388Z,37.00
2019-02-27T12:48:22.371Z,35.90
2019-02-27T12:49:22.385Z,33.50
2019-02-27T12:50:22.366Z,35.10
2019-02-27T12:51:22.347Z,35.10
2019-02-27T12:52:22.771Z,34.60
2019-02-27T12:53:22.305Z,34.80
2019-02-27T12:54:22.326Z,37.90
2019-02-27T12:55:22.332Z,40.60
2019-02-27T12:56:22.277Z,35.50
2019-02-27T12:57:22.282Z,36.00
2019-02-27T12:58:24.398Z,39.70
2019-02-27T12:59:22.107Z,82.70
2019-02-27T13:00:22.262Z,35.30
2019-02-27T13:01:22.276Z,30.70
2019-02-27T13:02:32.451Z,31.70
2019-02-27T13:03:23.198Z,33.30
2019-02-27T13:04:22.069Z,31.90
2019-02-27T13:05:26.450Z,33.50
2019-02-27T13:06:23.220Z,32.60
2019-02-27T13:07:22.206Z,38.40
2019-02-27T13:08:22.157Z,36.30
2019-02-27T13:09:24.514Z,35.60
2019-02-27T13:10:22.149Z,35.70
2019-02-27T13:11:22.342Z,31.50
2019-02-27T13:12:22.019Z,36.20
2019-02-27T13:13:23.316Z,32.60
2019-02-27T13:14:22.100Z,36.10
2019-02-27T13:15:22.085Z,36.20
2019-02-27T13:16:22.061Z,41.80
2019-02-27T13:17:22.279Z,32.70
2019-02-27T13:18:22.091Z,35.50
2019-02-27T13:19:22.056Z,36.10
2019-02-27T13:20:22.039Z,33.80
2019-02-27T13:21:22.042Z,36.30
2019-02-27T13:22:21.990Z,35.60
2019-02-27T13:23:21.851Z,32.80
2019-02-27T13:24:22.007Z,34.50
2019-02-27T13:25:24.097Z,35.30
2019-02-27T13:26:21.966Z,32.70
2019-02-27T13:27:21.936Z,29.60
2019-02-27T13:28:21.919Z,36.40
2019-02-27T13:29:21.959Z,35.90
2019-02-27T13:30:21.892Z,33.50
2019-02-27T13:31:21.906Z,31.40
2019-02-27T13:32:26.383Z,30.90
2019-02-27T13:33:22.889Z,46.20
2019-02-27T13:34:21.905Z,30.70
2019-02-27T13:35:22.961Z,31.10
2019-02-27T13:36:21.862Z,34.40
2019-02-27T13:37:21.827Z,32.20
2019-02-27T13:38:21.682Z,33.90
2019-02-27T13:39:25.417Z,38.30
2019-02-27T13:40:21.667Z,39.40
2019-02-27T13:41:23.630Z,35.50
2019-02-27T13:42:21.755Z,37.80
2019-02-27T13:43:24.393Z,37.80
2019-02-27T13:44:23.129Z,33.30
2019-02-27T13:45:21.747Z,49.10
2019-02-27T13:46:22.698Z,91.50
2019-02-27T13:47:21.577Z,79.40
2019-02-27T13:48:21.721Z,69.40
2019-02-27T13:49:21.679Z,52.70
2019-02-27T13:50:24.421Z,58.60
2019-02-27T13:51:21.719Z,52.20
2019-02-27T13:52:21.686Z,56.20
2019-02-27T13:53:25.806Z,55.70
2019-02-27T13:54:22.630Z,67.20
2019-02-27T13:55:21.630Z,53.60
2019-02-27T13:56:21.666Z,55.70
2019-02-27T13:57:24.991Z,53.30
2019-02-27T13:58:21.613Z,56.00
2019-02-27T13:59:21.583Z,56.90
2019-02-27T14:00:21.691Z,48.50
2019-02-27T14:01:21.548Z,54.30
2019-02-27T14:02:21.590Z,51.40
2019-02-27T14:03:21.415Z,39.50
2019-02-27T14:04:22.669Z,53.40
2019-02-27T14:05:21.645Z,44.90
2019-02-27T14:06:21.551Z,40.70
2019-02-27T14:07:23.477Z,41.50
2019-02-27T14:08:21.384Z,33.60
2019-02-27T14:09:21.451Z,34.40
2019-02-27T14:10:21.485Z,40.10
2019-02-27T14:11:21.448Z,36.90
2019-02-27T14:12:21.427Z,35.50
2019-02-27T14:13:21.272Z,32.60
2019-02-27T14:14:21.431Z,34.50
2019-02-27T14:15:21.449Z,32.30
2019-02-27T14:16:22.385Z,34.90
2019-02-27T14:17:21.384Z,36.90
2019-02-27T14:18:21.343Z,76.80
2019-02-27T14:19:23.905Z,78.20
2019-02-27T14:20:21.385Z,71.40
2019-02-27T14:21:21.333Z,64.70
2019-02-27T14:22:21.324Z,51.00
2019-02-27T14:23:21.309Z,49.80
2019-02-27T14:24:21.385Z,47.00
2019-02-27T14:25:21.457Z,46.20
2019-02-27T14:26:21.258Z,43.60
2019-02-27T14:27:21.247Z,40.30
2019-02-27T14:28:21.685Z,42.50
2019-02-27T14:29:21.225Z,40.80
2019-02-27T14:30:21.220Z,54.60
2019-02-27T14:31:21.779Z,73.90
2019-02-27T14:32:21.225Z,83.90
2019-02-27T14:33:21.051Z,73.60
2019-02-27T14:34:21.174Z,61.50
2019-02-27T14:35:21.751Z,55.90
2019-02-27T14:36:21.164Z,54.80
2019-02-27T14:37:21.703Z,54.90
2019-02-27T14:38:22.031Z,61.30
2019-02-27T14:39:21.136Z,60.30
2019-02-27T14:40:21.107Z,57.40
2019-02-27T14:41:21.127Z,57.00
2019-02-27T14:42:21.340Z,54.90
2019-02-27T14:43:21.096Z,46.50
2019-02-27T14:44:21.049Z,44.00
2019-02-27T14:45:21.079Z,42.60
2019-02-27T14:46:21.612Z,42.30
2019-02-27T14:47:21.068Z,45.00
2019-02-27T14:48:21.577Z,64.70
2019-02-27T14:49:20.983Z,77.60
2019-02-27T14:50:21.012Z,172.70
2019-02-27T14:51:21.014Z,135.30
2019-02-27T14:52:21.044Z,104.50
2019-02-27T14:53:20.963Z,89.70
2019-02-27T14:54:20.957Z,83.20
2019-02-27T14:55:20.825Z,77.70
2019-02-27T14:56:20.813Z,76.00
2019-02-27T14:57:20.794Z,57.00
2019-02-27T14:58:24.068Z,55.40
2019-02-27T14:59:20.767Z,50.30
2019-02-27T15:00:20.747Z,53.50
2019-02-27T15:01:20.873Z,83.00
2019-02-27T15:02:22.425Z,84.80
2019-02-27T15:03:20.860Z,29.10
2019-02-27T15:04:20.751Z,24.20
2019-02-27T15:05:20.841Z,22.40
2019-02-27T15:06:20.688Z,25.10
2019-02-27T15:07:22.256Z,26.30
2019-02-27T15:08:20.806Z,21.90
2019-02-27T15:09:20.819Z,23.00
2019-02-27T15:10:20.892Z,23.70
2019-02-27T15:11:21.770Z,28.30
2019-02-27T15:12:20.816Z,22.80
2019-02-27T15:13:20.766Z,26.30
2019-02-27T15:14:22.269Z,22.50
2019-02-27T15:15:20.731Z,25.90
2019-02-27T15:16:21.892Z,25.20
2019-02-27T15:17:20.950Z,26.10
